Time;durP1;ratioP1;P1;durP2;ratioP2;P2;SDS_P1;SDS_P2;PMS_P1;PMS_P2;Temp;Humidity;BMP_temperature;BMP_pressure;BME280_temperature;BME280_humidity;BME280_pressure;Samples;Min_cycle;Max_cycle;Signal;HPM_P1;HPM_P2
2021/12/01 00:00:02;;;;;;;17.70;9.90;;;;;;;;;;5057855;28;20474;-82
2021/12/01 00:02:28;;;;;;;19.53;8.87;;;;;;;;;;5060435;28;20495;-82
2021/12/01 00:04:56;;;;;;;15.50;9.13;;;;;;;;;;5060121;28;21008;-83
2021/12/01 00:07:22;;;;;;;25.37;10.87;;;;;;;;;;5056587;28;21065;-83
2021/12/01 00:09:48;;;;;;;22.90;10.83;;;;;;;;;;5060134;28;20483;-82
2021/12/01 00:12:14;;;;;;;17.77;11.67;;;;;;;;;;5059947;28;20482;-84
2021/12/01 00:14:41;;;;;;;24.07;13.27;;;;;;;;;;5061399;28;20477;-83
2021/12/01 00:17:11;;;;;;;25.67;13.37;;;;;;;;;;5059775;28;20526;-82
2021/12/01 00:19:37;;;;;;;19.53;12.67;;;;;;;;;;5059812;28;20487;-84
2021/12/01 00:22:04;;;;;;;32.30;12.20;;;;;;;;;;5058972;28;21008;-82
2021/12/01 00:24:31;;;;;;;20.93;12.33;;;;;;;;;;5061248;28;20545;-83
2021/12/01 00:26:57;;;;;;;23.70;11.77;;;;;;;;;;5059251;28;20471;-84
2021/12/01 00:29:23;;;;;;;24.30;11.40;;;;;;;;;;5059114;28;20472;-83
2021/12/01 00:31:49;;;;;;;22.30;10.83;;;;;;;;;;5059669;28;21225;-84
2021/12/01 00:34:16;;;;;;;19.13;10.93;;;;;;;;;;5057795;28;20462;-82
2021/12/01 00:36:42;;;;;;;16.70;9.93;;;;;;;;;;5059763;28;20563;-81
2021/12/01 00:39:10;;;;;;;21.47;10.77;;;;;;;;;;5060012;28;20475;-81
2021/12/01 00:41:36;;;;;;;19.03;10.60;;;;;;;;;;5059270;28;20467;-81
2021/12/01 00:44:02;;;;;;;20.90;10.80;;;;;;;;;;5060201;28;20510;-83
2021/12/01 00:46:38;;;;;;;15.33;10.20;;;;;;;;;;5059437;28;20821;-81
2021/12/01 00:49:05;;;;;;;15.43;10.07;;;;;;;;;;5057410;28;20505;-81
2021/12/01 00:51:31;;;;;;;20.57;8.93;;;;;;;;;;5060471;28;22521;-83
2021/12/01 00:53:57;;;;;;;23.00;10.27;;;;;;;;;;5060162;28;20481;-83
2021/12/01 00:58:53;;;;;;;14.20;9.07;;;;;;;;;;5062005;28;20502;-86
2021/12/01 01:01:20;;;;;;;16.63;9.50;;;;;;;;;;5062697;28;20525;-87
2021/12/01 01:03:46;;;;;;;12.83;8.60;;;;;;;;;;5064196;28;20878;-86
2021/12/01 01:06:12;;;;;;;15.47;8.87;;;;;;;;;;5064549;28;20482;-86
2021/12/01 01:08:39;;;;;;;16.23;8.17;;;;;;;;;;5065865;28;20540;-87
2021/12/01 01:16:22;;;;;;;14.17;9.37;;;;;;;;;;5063318;28;20536;-86
2021/12/01 01:16:44;;;;;;;12.00;8.67;;;;;;;;;;5063783;28;20860;-86
2021/12/01 01:19:11;;;;;;;13.43;9.83;;;;;;;;;;5064710;28;20470;-87
2021/12/01 01:21:39;;;;;;;14.03;8.27;;;;;;;;;;5064194;28;20475;-86
2021/12/01 01:24:05;;;;;;;14.43;9.60;;;;;;;;;;5066344;28;20498;-86
2021/12/01 01:26:32;;;;;;;15.33;9.07;;;;;;;;;;5067040;28;20472;-86
2021/12/01 01:29:00;;;;;;;11.70;7.87;;;;;;;;;;5066309;28;21125;-86
2021/12/01 01:31:26;;;;;;;13.27;9.20;;;;;;;;;;5067730;28;20471;-87
2021/12/01 01:33:53;;;;;;;13.63;8.70;;;;;;;;;;5067634;28;20444;-86
2021/12/01 01:36:19;;;;;;;13.27;8.60;;;;;;;;;;5067113;28;20467;-86
2021/12/01 01:38:46;;;;;;;11.70;8.67;;;;;;;;;;5067896;28;20463;-87
2021/12/01 01:41:13;;;;;;;13.33;8.20;;;;;;;;;;5068093;28;20540;-86
2021/12/01 01:43:40;;;;;;;13.37;9.27;;;;;;;;;;5068614;28;20482;-86
2021/12/01 01:46:08;;;;;;;13.37;9.10;;;;;;;;;;5067978;28;20493;-86
2021/12/01 01:48:45;;;;;;;15.30;9.50;;;;;;;;;;5069338;28;20524;-86
2021/12/01 01:51:11;;;;;;;11.43;8.10;;;;;;;;;;5068848;28;20482;-86
2021/12/01 01:53:37;;;;;;;13.30;8.83;;;;;;;;;;5070203;28;20498;-86
2021/12/01 01:56:05;;;;;;;15.77;8.23;;;;;;;;;;5070495;28;20504;-86
2021/12/01 01:58:31;;;;;;;14.23;8.40;;;;;;;;;;5069505;28;20494;-86
2021/12/01 02:01:06;;;;;;;14.47;9.20;;;;;;;;;;5068387;28;20488;-86
2021/12/01 02:03:35;;;;;;;13.70;8.83;;;;;;;;;;5068690;28;20891;-86
2021/12/01 02:06:01;;;;;;;11.90;8.00;;;;;;;;;;5071096;28;20502;-86
2021/12/01 02:08:30;;;;;;;15.63;8.07;;;;;;;;;;5070889;28;20877;-86
2021/12/01 02:10:57;;;;;;;10.13;7.60;;;;;;;;;;5070210;28;20467;-86
2021/12/01 02:13:24;;;;;;;10.27;7.20;;;;;;;;;;5070782;28;20523;-86
2021/12/01 02:15:51;;;;;;;13.27;8.47;;;;;;;;;;5065351;28;20497;-86
2021/12/01 02:18:17;;;;;;;12.10;8.20;;;;;;;;;;5067125;28;20482;-86
2021/12/01 02:20:57;;;;;;;13.83;8.03;;;;;;;;;;5067124;28;20462;-86
2021/12/01 02:23:23;;;;;;;12.80;8.27;;;;;;;;;;5067783;28;20447;-86
2021/12/01 02:25:50;;;;;;;11.20;8.00;;;;;;;;;;5066473;28;20479;-86
2021/12/01 02:28:16;;;;;;;10.60;7.57;;;;;;;;;;5070111;28;20488;-87
2021/12/01 02:30:43;;;;;;;12.40;7.87;;;;;;;;;;5069551;28;20467;-86
2021/12/01 02:33:09;;;;;;;11.13;8.67;;;;;;;;;;5068095;28;20447;-87
2021/12/01 02:35:35;;;;;;;14.10;8.50;;;;;;;;;;5071470;28;20448;-86
2021/12/01 02:38:04;;;;;;;12.00;7.47;;;;;;;;;;5070748;28;20474;-86
2021/12/01 02:40:31;;;;;;;13.87;8.77;;;;;;;;;;5072008;28;20444;-86
2021/12/01 02:42:57;;;;;;;17.97;10.30;;;;;;;;;;5068580;28;20528;-86
2021/12/01 02:45:23;;;;;;;15.40;9.70;;;;;;;;;;5069667;28;20483;-86
2021/12/01 02:47:49;;;;;;;13.77;9.20;;;;;;;;;;5068463;28;20466;-86
2021/12/01 02:50:16;;;;;;;18.10;10.87;;;;;;;;;;5067755;28;20451;-86
2021/12/01 02:52:42;;;;;;;16.13;9.90;;;;;;;;;;5068528;28;20475;-86
2021/12/01 02:55:10;;;;;;;16.57;10.63;;;;;;;;;;5070161;28;20439;-87
2021/12/01 02:57:41;;;;;;;21.40;11.97;;;;;;;;;;5069791;28;20487;-86
2021/12/01 03:00:09;;;;;;;17.97;12.10;;;;;;;;;;5066722;28;20536;-87
2021/12/01 03:02:35;;;;;;;18.83;11.20;;;;;;;;;;5067437;28;20540;-87
2021/12/01 03:05:01;;;;;;;19.80;12.53;;;;;;;;;;5068623;28;20490;-86
2021/12/01 03:07:28;;;;;;;22.00;13.57;;;;;;;;;;5069233;28;20483;-85
2021/12/01 03:09:54;;;;;;;22.60;13.57;;;;;;;;;;5074183;28;20478;-86
2021/12/01 03:12:21;;;;;;;21.30;13.40;;;;;;;;;;5062838;28;20484;-86
2021/12/01 03:14:48;;;;;;;25.57;14.90;;;;;;;;;;5063141;28;20448;-86
2021/12/01 03:17:14;;;;;;;28.70;15.10;;;;;;;;;;5062029;28;20486;-87
2021/12/01 03:19:40;;;;;;;26.87;16.77;;;;;;;;;;5064169;28;20470;-86
2021/12/01 03:22:07;;;;;;;30.90;17.17;;;;;;;;;;5064569;28;20476;-86
2021/12/01 03:24:34;;;;;;;34.67;17.17;;;;;;;;;;5063828;28;20455;-86
2021/12/01 03:27:00;;;;;;;29.70;18.27;;;;;;;;;;5062085;28;20532;-86
2021/12/01 03:29:27;;;;;;;33.87;20.63;;;;;;;;;;5061676;28;20452;-86
2021/12/01 03:31:54;;;;;;;33.90;20.57;;;;;;;;;;5064026;28;20504;-86
2021/12/01 03:34:21;;;;;;;39.03;21.50;;;;;;;;;;5064349;28;20489;-85
2021/12/01 03:36:48;;;;;;;35.87;20.97;;;;;;;;;;5063298;28;20568;-86
2021/12/01 03:39:14;;;;;;;45.40;22.90;;;;;;;;;;5063972;28;20820;-86
2021/12/01 03:41:40;;;;;;;41.17;22.33;;;;;;;;;;5063240;28;20904;-86
2021/12/01 03:44:06;;;;;;;38.50;21.33;;;;;;;;;;5063820;28;20875;-85
2021/12/01 03:46:34;;;;;;;45.63;23.13;;;;;;;;;;5061226;28;20481;-86
2021/12/01 03:49:00;;;;;;;46.47;23.50;;;;;;;;;;5063715;28;20554;-86
2021/12/01 03:51:27;;;;;;;37.90;22.37;;;;;;;;;;5061291;28;20468;-86
2021/12/01 03:53:53;;;;;;;36.63;21.23;;;;;;;;;;5064045;28;20447;-86
2021/12/01 03:56:20;;;;;;;44.70;23.70;;;;;;;;;;5063107;28;21068;-87
2021/12/01 03:58:46;;;;;;;38.67;21.20;;;;;;;;;;5062325;28;21048;-85
2021/12/01 04:01:12;;;;;;;37.13;19.90;;;;;;;;;;5061438;28;20467;-86
2021/12/01 04:03:40;;;;;;;43.37;20.67;;;;;;;;;;5062853;28;20440;-86
2021/12/01 04:06:07;;;;;;;30.20;18.33;;;;;;;;;;5062215;28;20529;-86
2021/12/01 04:08:33;;;;;;;33.40;17.90;;;;;;;;;;5063293;28;20503;-86
2021/12/01 04:10:59;;;;;;;31.60;18.00;;;;;;;;;;5062100;28;20466;-86
2021/12/01 04:13:26;;;;;;;25.67;14.70;;;;;;;;;;5062722;28;20451;-86
2021/12/01 04:15:52;;;;;;;28.07;15.30;;;;;;;;;;5060490;28;20443;-86
2021/12/01 04:18:18;;;;;;;25.37;14.13;;;;;;;;;;5062356;28;20471;-85
2021/12/01 04:20:46;;;;;;;21.53;10.63;;;;;;;;;;5058758;28;20455;-86
2021/12/01 04:23:12;;;;;;;16.67;11.40;;;;;;;;;;5061562;28;20451;-86
2021/12/01 04:25:38;;;;;;;21.77;11.47;;;;;;;;;;5062433;28;20538;-86
2021/12/01 04:28:05;;;;;;;15.37;10.77;;;;;;;;;;5061558;28;20470;-85
2021/12/01 04:30:31;;;;;;;13.33;8.80;;;;;;;;;;5061001;28;20460;-87
2021/12/01 04:32:57;;;;;;;14.80;9.83;;;;;;;;;;5061435;28;20475;-86
2021/12/01 04:35:25;;;;;;;14.43;8.30;;;;;;;;;;5061154;28;20519;-86
2021/12/01 04:37:54;;;;;;;12.83;7.63;;;;;;;;;;5060157;28;20490;-85
2021/12/01 04:40:20;;;;;;;11.60;7.63;;;;;;;;;;5060031;28;20500;-85
2021/12/01 04:42:46;;;;;;;10.33;7.27;;;;;;;;;;5065921;28;20516;-86
2021/12/01 04:45:15;;;;;;;7.60;5.67;;;;;;;;;;5065872;28;20447;-86
2021/12/01 04:47:42;;;;;;;7.53;5.33;;;;;;;;;;5064707;28;20544;-86
2021/12/01 04:50:09;;;;;;;8.47;5.20;;;;;;;;;;5066527;28;20891;-86
2021/12/01 04:52:35;;;;;;;5.20;4.40;;;;;;;;;;5064269;28;20475;-86
2021/12/01 04:55:03;;;;;;;4.63;3.87;;;;;;;;;;5066842;28;20505;-86
2021/12/01 04:57:29;;;;;;;5.77;3.97;;;;;;;;;;5065860;28;20480;-86
2021/12/01 04:59:56;;;;;;;4.27;3.07;;;;;;;;;;5066222;28;20497;-86
2021/12/01 05:02:22;;;;;;;3.33;2.73;;;;;;;;;;5066162;28;21019;-86
2021/12/01 05:04:48;;;;;;;3.70;3.03;;;;;;;;;;5064865;28;20463;-86
2021/12/01 05:07:14;;;;;;;3.23;2.60;;;;;;;;;;5068010;28;21520;-86
2021/12/01 05:09:41;;;;;;;4.77;3.37;;;;;;;;;;5066002;28;20459;-86
2021/12/01 05:12:09;;;;;;;3.70;2.80;;;;;;;;;;5066531;28;20476;-86
2021/12/01 05:14:35;;;;;;;4.13;3.73;;;;;;;;;;5063864;28;20459;-86
2021/12/01 05:17:01;;;;;;;3.83;3.10;;;;;;;;;;5066610;28;20472;-86
2021/12/01 05:19:28;;;;;;;3.40;3.10;;;;;;;;;;5063152;28;20893;-86
2021/12/01 05:21:54;;;;;;;3.43;3.13;;;;;;;;;;5067111;28;20529;-86
2021/12/01 05:24:21;;;;;;;3.43;3.13;;;;;;;;;;5067610;28;20463;-87
2021/12/01 05:26:47;;;;;;;3.80;3.50;;;;;;;;;;5066665;28;20506;-86
2021/12/01 05:29:16;;;;;;;5.10;3.13;;;;;;;;;;5069486;28;20468;-86
2021/12/01 05:31:42;;;;;;;3.43;3.13;;;;;;;;;;5067981;28;21008;-86
2021/12/01 05:34:09;;;;;;;3.53;3.23;;;;;;;;;;5070860;28;20692;-86
2021/12/01 05:36:35;;;;;;;4.13;3.43;;;;;;;;;;5069521;28;20551;-87
2021/12/01 05:39:02;;;;;;;3.67;3.37;;;;;;;;;;5074611;28;21762;-86
2021/12/01 05:41:28;;;;;;;3.83;3.43;;;;;;;;;;5067057;28;20466;-86
2021/12/01 05:43:54;;;;;;;4.03;3.50;;;;;;;;;;5067845;28;20496;-86
2021/12/01 05:46:22;;;;;;;5.07;4.00;;;;;;;;;;5068633;28;20512;-85
2021/12/01 05:48:51;;;;;;;4.40;3.00;;;;;;;;;;5067539;28;20451;-85
2021/12/01 05:51:17;;;;;;;4.03;3.57;;;;;;;;;;5066023;28;20474;-86
2021/12/01 05:53:44;;;;;;;4.10;3.80;;;;;;;;;;5067331;28;20472;-86
2021/12/01 05:56:10;;;;;;;3.63;3.33;;;;;;;;;;5066070;28;20522;-87
2021/12/01 05:58:36;;;;;;;3.30;3.00;;;;;;;;;;5065694;28;20486;-86
2021/12/01 06:01:03;;;;;;;4.23;3.83;;;;;;;;;;5066100;28;20544;-86
2021/12/01 06:03:30;;;;;;;6.47;4.00;;;;;;;;;;5066964;28;20462;-86
2021/12/01 06:05:56;;;;;;;3.80;3.50;;;;;;;;;;5063923;28;20463;-86
2021/12/01 06:08:23;;;;;;;3.63;3.33;;;;;;;;;;5065264;28;20478;-85
2021/12/01 06:10:49;;;;;;;3.87;3.37;;;;;;;;;;5066089;28;20501;-86
2021/12/01 06:13:17;;;;;;;4.60;4.20;;;;;;;;;;5065483;28;20459;-85
2021/12/01 06:15:43;;;;;;;4.67;3.83;;;;;;;;;;5066091;28;20452;-86
2021/12/01 06:18:10;;;;;;;5.83;3.90;;;;;;;;;;5063696;28;20487;-86
2021/12/01 06:20:37;;;;;;;4.20;3.80;;;;;;;;;;5065937;28;21043;-85
2021/12/01 06:23:04;;;;;;;4.80;4.17;;;;;;;;;;5062914;28;20471;-86
2021/12/01 06:25:30;;;;;;;5.50;3.77;;;;;;;;;;5064073;28;20451;-86
2021/12/01 06:27:57;;;;;;;5.30;3.37;;;;;;;;;;5064289;28;20478;-86
2021/12/01 06:30:23;;;;;;;4.47;3.90;;;;;;;;;;5066042;28;20981;-86
2021/12/01 06:32:50;;;;;;;3.50;3.20;;;;;;;;;;5066065;28;20490;-86
2021/12/01 06:35:16;;;;;;;4.53;4.10;;;;;;;;;;5065464;28;20446;-86
2021/12/01 06:37:44;;;;;;;4.07;3.67;;;;;;;;;;5065805;28;20475;-85
2021/12/01 06:40:11;;;;;;;4.70;4.23;;;;;;;;;;5063964;28;20481;-86
2021/12/01 06:42:37;;;;;;;4.50;4.10;;;;;;;;;;5066073;28;20600;-85
2021/12/01 06:45:04;;;;;;;3.30;3.00;;;;;;;;;;5066101;28;20451;-84
2021/12/01 06:47:31;;;;;;;4.10;3.70;;;;;;;;;;5064904;28;20533;-84
2021/12/01 06:49:59;;;;;;;5.07;3.30;;;;;;;;;;5065871;28;20446;-85
2021/12/01 06:52:27;;;;;;;3.63;3.33;;;;;;;;;;5064728;28;20475;-86
2021/12/01 06:54:55;;;;;;;4.90;3.23;;;;;;;;;;5067295;28;20469;-86
2021/12/01 06:57:21;;;;;;;3.50;3.20;;;;;;;;;;5077375;22;20497;-82
2021/12/01 06:59:47;;;;;;;4.27;3.87;;;;;;;;;;5042005;28;20953;-80
2021/12/01 07:02:13;;;;;;;3.73;3.30;;;;;;;;;;5042593;28;20495;-81
2021/12/01 07:04:40;;;;;;;4.17;3.73;;;;;;;;;;5043322;28;20471;-81
2021/12/01 07:07:06;;;;;;;4.10;3.60;;;;;;;;;;5042831;28;20477;-81
2021/12/01 07:09:32;;;;;;;3.83;3.47;;;;;;;;;;5041655;28;20464;-81
2021/12/01 07:12:00;;;;;;;3.70;3.40;;;;;;;;;;5042577;28;20551;-80
2021/12/01 07:14:27;;;;;;;4.17;3.83;;;;;;;;;;5043558;28;20498;-80
2021/12/01 07:16:53;;;;;;;6.20;4.37;;;;;;;;;;5041295;28;20479;-82
2021/12/01 07:19:19;;;;;;;4.73;4.33;;;;;;;;;;5039029;28;20485;-83
2021/12/01 07:21:46;;;;;;;4.00;3.60;;;;;;;;;;5041144;28;20476;-80
2021/12/01 07:24:12;;;;;;;4.93;4.40;;;;;;;;;;5043558;28;20880;-82
2021/12/01 07:26:38;;;;;;;4.57;4.17;;;;;;;;;;5042274;28;20530;-82
2021/12/01 07:29:06;;;;;;;4.20;3.80;;;;;;;;;;5043488;28;20507;-83
2021/12/01 07:31:32;;;;;;;4.03;3.63;;;;;;;;;;5039658;28;20978;-81
2021/12/01 07:33:58;;;;;;;4.70;4.30;;;;;;;;;;5043776;28;20482;-83
2021/12/01 07:36:25;;;;;;;3.53;3.23;;;;;;;;;;5039935;28;20468;-81
2021/12/01 07:38:53;;;;;;;4.67;4.27;;;;;;;;;;5042699;28;20471;-81
2021/12/01 07:41:19;;;;;;;4.90;3.37;;;;;;;;;;5042990;28;20533;-82
2021/12/01 07:43:45;;;;;;;5.07;4.67;;;;;;;;;;5042556;28;20510;-83
2021/12/01 07:46:13;;;;;;;5.20;4.70;;;;;;;;;;5042840;28;20877;-82
2021/12/01 07:48:39;;;;;;;4.60;3.83;;;;;;;;;;5042627;28;20465;-81
2021/12/01 07:51:05;;;;;;;4.40;3.80;;;;;;;;;;5041875;28;20472;-81
2021/12/01 07:53:32;;;;;;;4.50;4.10;;;;;;;;;;5039083;28;20460;-81
2021/12/01 07:55:58;;;;;;;4.90;4.43;;;;;;;;;;5041723;28;20498;-81
2021/12/01 07:58:24;;;;;;;8.27;5.03;;;;;;;;;;5041967;28;20567;-81
2021/12/01 08:00:50;;;;;;;4.70;4.13;;;;;;;;;;5042416;28;20461;-81
2021/12/01 08:03:18;;;;;;;4.73;4.33;;;;;;;;;;5043518;28;20453;-81
2021/12/01 08:05:44;;;;;;;4.60;4.20;;;;;;;;;;5037492;28;20916;-83
2021/12/01 08:08:11;;;;;;;4.87;4.37;;;;;;;;;;5039658;28;20480;-81
2021/12/01 08:10:37;;;;;;;5.07;4.60;;;;;;;;;;5042816;28;20912;-82
2021/12/01 08:13:04;;;;;;;5.40;4.80;;;;;;;;;;5043506;28;20460;-82
2021/12/01 08:15:31;;;;;;;5.93;4.50;;;;;;;;;;5041579;28;20460;-82
2021/12/01 08:17:59;;;;;;;4.77;4.30;;;;;;;;;;5042757;28;20475;-82
2021/12/01 08:20:27;;;;;;;5.80;5.30;;;;;;;;;;5041301;28;20992;-82
2021/12/01 08:22:54;;;;;;;5.57;5.03;;;;;;;;;;5042443;28;20479;-81
2021/12/01 08:25:21;;;;;;;5.37;4.90;;;;;;;;;;5043535;28;20453;-82
2021/12/01 08:27:47;;;;;;;6.87;6.20;;;;;;;;;;5040026;28;20468;-82
2021/12/01 08:30:13;;;;;;;5.60;4.80;;;;;;;;;;5042939;28;20453;-81
2021/12/01 08:32:45;;;;;;;5.67;5.10;;;;;;;;;;5042658;28;20515;-82
2021/12/01 08:35:11;;;;;;;6.40;5.47;;;;;;;;;;5041330;28;20459;-81
2021/12/01 08:37:39;;;;;;;6.57;5.30;;;;;;;;;;5041998;28;20901;-81
2021/12/01 08:40:05;;;;;;;6.30;5.43;;;;;;;;;;5042253;28;20445;-82
2021/12/01 08:42:33;;;;;;;5.57;5.07;;;;;;;;;;5040366;28;20526;-83
2021/12/01 08:45:00;;;;;;;4.90;4.47;;;;;;;;;;5043061;28;20541;-83
2021/12/01 08:47:28;;;;;;;4.50;4.10;;;;;;;;;;5041459;28;20543;-81
2021/12/01 08:49:54;;;;;;;5.10;4.70;;;;;;;;;;5040094;28;20942;-81
2021/12/01 08:52:22;;;;;;;4.50;4.20;;;;;;;;;;5040856;28;20475;-80
2021/12/01 08:54:50;;;;;;;4.57;4.17;;;;;;;;;;5042169;28;20880;-80
2021/12/01 08:57:16;;;;;;;4.90;3.80;;;;;;;;;;5042129;28;20476;-83
2021/12/01 08:59:44;;;;;;;4.00;3.60;;;;;;;;;;5040233;28;20456;-81
2021/12/01 09:02:10;;;;;;;4.30;3.97;;;;;;;;;;5037696;28;20483;-82
2021/12/01 09:04:37;;;;;;;4.27;3.83;;;;;;;;;;5041553;28;20487;-81
2021/12/01 09:07:03;;;;;;;5.40;3.90;;;;;;;;;;5040597;28;20546;-81
2021/12/01 09:09:30;;;;;;;3.63;3.33;;;;;;;;;;5042666;28;20483;-81
2021/12/01 09:11:57;;;;;;;4.13;3.83;;;;;;;;;;5041010;28;20488;-84
2021/12/01 09:14:24;;;;;;;2.97;2.77;;;;;;;;;;5041942;28;20502;-83
2021/12/01 09:16:51;;;;;;;3.70;3.30;;;;;;;;;;5041160;28;20476;-82
2021/12/01 09:19:18;;;;;;;3.37;3.10;;;;;;;;;;5041116;28;20479;-81
2021/12/01 09:21:44;;;;;;;4.40;3.10;;;;;;;;;;5039685;28;20464;-81
2021/12/01 09:24:10;;;;;;;3.57;3.37;;;;;;;;;;5042217;28;20483;-83
2021/12/01 09:26:37;;;;;;;5.37;3.30;;;;;;;;;;5039111;28;20513;-81
2021/12/01 09:29:05;;;;;;;3.57;2.90;;;;;;;;;;5041537;28;20879;-83
2021/12/01 09:31:31;;;;;;;3.00;2.80;;;;;;;;;;5040066;28;20479;-82
2021/12/01 09:33:57;;;;;;;3.83;3.33;;;;;;;;;;5042155;28;20453;-82
2021/12/01 09:36:24;;;;;;;3.20;2.90;;;;;;;;;;5041536;28;20480;-84
2021/12/01 09:38:51;;;;;;;2.63;2.43;;;;;;;;;;5042179;28;20478;-83
2021/12/01 09:41:17;;;;;;;3.80;3.37;;;;;;;;;;5039525;28;21059;-82
2021/12/01 09:43:43;;;;;;;2.33;2.20;;;;;;;;;;5041967;28;21028;-84
2021/12/01 09:46:11;;;;;;;2.50;2.30;;;;;;;;;;5040565;28;20480;-82
2021/12/01 09:48:38;;;;;;;2.40;2.30;;;;;;;;;;5040704;28;21071;-83
2021/12/01 09:51:05;;;;;;;8.40;2.80;;;;;;;;;;5041337;28;20475;-84
2021/12/01 09:53:32;;;;;;;2.17;2.07;;;;;;;;;;5040336;28;20443;-84
2021/12/01 09:55:58;;;;;;;2.07;1.97;;;;;;;;;;5040139;28;20515;-84
2021/12/01 09:58:30;;;;;;;2.63;2.43;;;;;;;;;;5039331;28;20534;-84
2021/12/01 10:00:57;;;;;;;2.40;2.20;;;;;;;;;;5042146;28;20493;-83
2021/12/01 10:03:25;;;;;;;2.83;2.63;;;;;;;;;;5043444;28;20510;-84
2021/12/01 10:05:53;;;;;;;4.47;4.07;;;;;;;;;;5040721;28;20949;-82
2021/12/01 10:08:21;;;;;;;2.40;2.20;;;;;;;;;;5042393;28;20487;-84
2021/12/01 10:10:47;;;;;;;2.57;2.37;;;;;;;;;;5040394;28;21422;-84
2021/12/01 10:13:14;;;;;;;4.80;4.40;;;;;;;;;;5039638;28;20518;-84
2021/12/01 10:15:40;;;;;;;3.47;3.17;;;;;;;;;;5043015;28;20494;-82
2021/12/01 10:18:13;;;;;;;3.63;3.33;;;;;;;;;;5044420;28;20471;-83
2021/12/01 10:20:40;;;;;;;3.47;3.20;;;;;;;;;;5045123;28;20452;-84
2021/12/01 10:23:08;;;;;;;3.47;3.17;;;;;;;;;;5044335;28;20977;-83
2021/12/01 10:25:34;;;;;;;2.83;2.63;;;;;;;;;;5041985;28;20527;-84
2021/12/01 10:28:00;;;;;;;3.40;3.10;;;;;;;;;;5043429;28;20488;-84
2021/12/01 10:30:40;;;;;;;3.37;2.63;;;;;;;;;;5043102;28;20472;-84
2021/12/01 10:33:10;;;;;;;3.00;2.80;;;;;;;;;;5043728;28;20472;-82
2021/12/01 10:35:37;;;;;;;3.00;2.70;;;;;;;;;;5045580;28;20521;-83
2021/12/01 10:38:06;;;;;;;3.60;2.97;;;;;;;;;;5042582;28;20817;-81
2021/12/01 10:40:33;;;;;;;4.27;2.90;;;;;;;;;;5045760;28;20455;-83
2021/12/01 10:43:00;;;;;;;2.40;2.20;;;;;;;;;;5043736;28;20460;-82
2021/12/01 10:45:27;;;;;;;6.10;5.00;;;;;;;;;;5045118;28;20445;-83
2021/12/01 10:47:53;;;;;;;2.50;2.30;;;;;;;;;;5043174;28;20537;-84
2021/12/01 10:50:22;;;;;;;3.03;2.57;;;;;;;;;;5043243;28;20452;-83
2021/12/01 10:52:50;;;;;;;1.97;1.87;;;;;;;;;;5046165;28;20532;-84
2021/12/01 10:55:18;;;;;;;7.80;2.10;;;;;;;;;;5045310;28;20444;-85
2021/12/01 10:57:47;;;;;;;2.63;2.43;;;;;;;;;;5042630;28;20480;-82
2021/12/01 11:00:15;;;;;;;3.57;2.43;;;;;;;;;;5044359;28;20452;-81
2021/12/01 11:02:41;;;;;;;3.13;2.07;;;;;;;;;;5044901;28;20491;-81
2021/12/01 11:05:08;;;;;;;2.20;1.70;;;;;;;;;;5043740;28;20461;-82
2021/12/01 11:07:34;;;;;;;2.13;1.80;;;;;;;;;;5042458;28;20488;-81
2021/12/01 11:10:14;;;;;;;2.73;2.07;;;;;;;;;;5044242;28;20470;-82
2021/12/01 11:12:42;;;;;;;3.27;2.60;;;;;;;;;;5042897;28;20506;-80
2021/12/01 11:15:18;;;;;;;5.07;3.03;;;;;;;;;;5045001;28;20600;-82
2021/12/01 11:17:45;;;;;;;3.83;2.00;;;;;;;;;;5043414;28;20601;-81
2021/12/01 11:20:11;;;;;;;7.43;1.80;;;;;;;;;;5044186;28;21458;-82
2021/12/01 11:22:37;;;;;;;4.90;2.20;;;;;;;;;;5042887;28;20471;-83
2021/12/01 11:25:20;;;;;;;7.37;5.10;;;;;;;;;;5043832;28;20444;-81
2021/12/01 11:27:47;;;;;;;3.90;2.40;;;;;;;;;;5042787;28;20897;-85
2021/12/01 11:30:14;;;;;;;1.97;1.40;;;;;;;;;;5043203;28;20519;-82
2021/12/01 11:32:40;;;;;;;7.67;2.83;;;;;;;;;;5042170;28;20472;-81
2021/12/01 11:35:06;;;;;;;11.03;3.03;;;;;;;;;;5043006;28;20448;-82
2021/12/01 11:37:33;;;;;;;5.30;1.63;;;;;;;;;;5039638;28;20554;-81
2021/12/01 11:39:59;;;;;;;6.47;2.13;;;;;;;;;;5041376;28;20468;-82
2021/12/01 11:42:25;;;;;;;5.20;2.90;;;;;;;;;;5041390;28;20471;-82
2021/12/01 11:44:55;;;;;;;4.43;1.90;;;;;;;;;;5043090;28;20457;-82
2021/12/01 11:47:21;;;;;;;3.87;1.50;;;;;;;;;;5042412;28;20479;-83
2021/12/01 11:49:50;;;;;;;3.17;1.13;;;;;;;;;;5041749;28;20480;-83
2021/12/01 11:52:17;;;;;;;4.43;1.33;;;;;;;;;;5041498;28;20483;-82
2021/12/01 11:54:44;;;;;;;5.97;1.63;;;;;;;;;;5044670;28;20448;-81
2021/12/01 11:57:11;;;;;;;6.23;1.90;;;;;;;;;;5040943;28;22783;-82
2021/12/01 11:59:38;;;;;;;4.97;2.07;;;;;;;;;;5042451;28;20518;-83
2021/12/01 12:02:07;;;;;;;2.90;1.10;;;;;;;;;;5043248;28;20489;-83
2021/12/01 12:04:43;;;;;;;6.27;1.90;;;;;;;;;;5042541;28;20498;-82
2021/12/01 12:07:11;;;;;;;8.77;3.70;;;;;;;;;;5042160;28;20558;-84
2021/12/01 12:09:38;;;;;;;2.93;1.77;;;;;;;;;;5042626;28;20492;-82
2021/12/01 12:12:10;;;;;;;9.63;2.57;;;;;;;;;;5041740;28;20487;-82
2021/12/01 12:14:38;;;;;;;5.77;2.30;;;;;;;;;;5040623;28;20510;-81
2021/12/01 12:17:08;;;;;;;3.67;1.40;;;;;;;;;;5042298;28;20476;-82
2021/12/01 12:19:51;;;;;;;2.87;1.60;;;;;;;;;;5042934;28;20961;-83
2021/12/01 12:22:22;;;;;;;10.30;2.63;;;;;;;;;;5042152;28;20479;-81
2021/12/01 12:24:52;;;;;;;4.27;1.63;;;;;;;;;;5042026;28;20981;-84
2021/12/01 12:27:39;;;;;;;2.00;1.30;;;;;;;;;;5041215;28;20487;-84
2021/12/01 12:30:06;;;;;;;5.83;1.50;;;;;;;;;;5040278;28;20495;-81
2021/12/01 12:32:34;;;;;;;4.70;1.30;;;;;;;;;;5041745;28;20483;-81
2021/12/01 12:35:02;;;;;;;3.57;1.20;;;;;;;;;;5043436;28;20464;-81
2021/12/01 12:37:30;;;;;;;8.77;2.17;;;;;;;;;;5040940;28;20578;-81
2021/12/01 12:39:57;;;;;;;5.07;1.53;;;;;;;;;;5041109;28;20949;-83
2021/12/01 12:42:26;;;;;;;5.97;2.20;;;;;;;;;;5039280;28;20476;-82
2021/12/01 12:44:53;;;;;;;8.13;2.23;;;;;;;;;;5040850;28;20467;-86
2021/12/01 12:47:22;;;;;;;6.67;2.10;;;;;;;;;;5042153;28;20479;-82
2021/12/01 12:49:50;;;;;;;3.73;1.40;;;;;;;;;;5041485;28;20585;-84
2021/12/01 12:52:33;;;;;;;3.97;1.50;;;;;;;;;;5038329;28;20469;-82
2021/12/01 12:55:01;;;;;;;6.70;2.17;;;;;;;;;;5040994;28;20456;-84
2021/12/01 12:57:43;;;;;;;3.80;2.07;;;;;;;;;;5040614;28;20482;-85
2021/12/01 13:00:16;;;;;;;3.93;1.50;;;;;;;;;;5068793;22;20498;-85
2021/12/01 13:02:42;;;;;;;4.37;2.00;;;;;;;;;;5063677;28;20468;-87
2021/12/01 13:05:10;;;;;;;5.17;1.77;;;;;;;;;;5059873;28;20528;-87
2021/12/01 13:07:44;;;;;;;7.30;2.73;;;;;;;;;;5062604;28;20895;-87
2021/12/01 13:10:21;;;;;;;7.30;2.40;;;;;;;;;;5063374;28;20492;-88
2021/12/01 13:12:55;;;;;;;4.30;1.77;;;;;;;;;;5062517;28;20513;-88
2021/12/01 13:15:22;;;;;;;6.80;2.50;;;;;;;;;;5060832;28;20867;-87
2021/12/01 13:17:49;;;;;;;7.33;2.23;;;;;;;;;;5061005;28;20471;-87
2021/12/01 13:20:18;;;;;;;9.47;1.80;;;;;;;;;;5062774;28;20487;-87
2021/12/01 13:22:59;;;;;;;4.77;1.47;;;;;;;;;;5060362;28;20514;-88
2021/12/01 13:25:25;;;;;;;4.90;1.80;;;;;;;;;;5064887;28;20452;-87
2021/12/01 13:27:51;;;;;;;9.10;4.00;;;;;;;;;;5060207;28;20888;-87
2021/12/01 13:30:17;;;;;;;4.90;1.80;;;;;;;;;;5065041;28;20915;-87
2021/12/01 13:32:44;;;;;;;8.83;2.30;;;;;;;;;;5064171;28;20475;-86
2021/12/01 13:35:10;;;;;;;14.17;7.60;;;;;;;;;;5063193;28;20462;-87
2021/12/01 13:37:38;;;;;;;12.67;3.27;;;;;;;;;;5063423;28;20482;-87
2021/12/01 13:40:08;;;;;;;48.57;27.33;;;;;;;;;;5060966;28;21001;-87
2021/12/01 13:42:34;;;;;;;11.77;3.60;;;;;;;;;;5064431;28;21067;-88
2021/12/01 13:45:00;;;;;;;22.97;8.80;;;;;;;;;;5063034;28;20474;-87
2021/12/01 13:47:29;;;;;;;16.37;7.80;;;;;;;;;;5061651;28;21011;-87
2021/12/01 13:49:56;;;;;;;7.93;3.20;;;;;;;;;;5066798;28;20513;-87
2021/12/01 13:52:27;;;;;;;14.47;4.73;;;;;;;;;;5066553;28;20847;-88
2021/12/01 13:54:56;;;;;;;6.47;2.27;;;;;;;;;;5066838;28;20977;-87
2021/12/01 13:57:22;;;;;;;9.50;2.83;;;;;;;;;;5064069;28;20470;-87
2021/12/01 13:59:49;;;;;;;7.60;3.03;;;;;;;;;;5065431;28;20478;-86
2021/12/01 14:02:25;;;;;;;10.20;2.77;;;;;;;;;;5066763;28;20486;-86
2021/12/01 14:04:51;;;;;;;8.70;6.30;;;;;;;;;;5068938;28;20504;-86
2021/12/01 14:07:18;;;;;;;7.13;3.83;;;;;;;;;;5066474;28;20504;-86
2021/12/01 14:09:55;;;;;;;5.63;3.77;;;;;;;;;;5066855;28;20478;-86
2021/12/01 14:12:22;;;;;;;8.13;2.00;;;;;;;;;;5065382;28;20548;-87
2021/12/01 14:14:49;;;;;;;6.37;2.17;;;;;;;;;;5067504;28;20552;-87
2021/12/01 14:17:15;;;;;;;4.70;1.30;;;;;;;;;;5068469;28;20486;-87
2021/12/01 14:19:42;;;;;;;7.73;1.83;;;;;;;;;;5066820;28;20596;-84
2021/12/01 14:22:11;;;;;;;7.57;1.80;;;;;;;;;;5068285;28;20475;-86
2021/12/01 14:24:37;;;;;;;4.57;1.70;;;;;;;;;;5069209;28;20507;-86
2021/12/01 14:27:06;;;;;;;4.93;1.50;;;;;;;;;;5068769;28;20478;-86
2021/12/01 14:29:36;;;;;;;9.63;1.80;;;;;;;;;;5073149;28;20483;-86
2021/12/01 14:32:03;;;;;;;12.80;1.70;;;;;;;;;;5070355;28;20482;-87
2021/12/01 14:34:32;;;;;;;5.37;1.33;;;;;;;;;;5067493;28;20969;-86
2021/12/01 14:36:59;;;;;;;4.80;1.50;;;;;;;;;;5066350;28;20502;-86
2021/12/01 14:39:25;;;;;;;10.53;2.73;;;;;;;;;;5067280;28;20467;-88
2021/12/01 14:41:54;;;;;;;2.80;1.30;;;;;;;;;;5067227;28;20498;-85